createdAt,value
2018-07-26T00:00:17.751Z,17.50
2018-07-26T00:02:46.715Z,17.40
2018-07-26T00:05:15.736Z,17.40
2018-07-26T00:07:45.540Z,17.40
2018-07-26T00:12:43.056Z,17.40
2018-07-26T00:15:12.036Z,17.40
2018-07-26T00:17:41.051Z,17.40
2018-07-26T00:20:11.217Z,17.40
2018-07-26T00:25:09.038Z,17.30
2018-07-26T00:27:38.059Z,17.30
2018-07-26T00:30:07.483Z,17.20
2018-07-26T00:32:36.498Z,17.20
2018-07-26T00:35:05.568Z,17.20
2018-07-26T00:37:34.669Z,17.30
2018-07-26T00:42:34.817Z,17.20
2018-07-26T00:45:04.451Z,17.20
2018-07-26T00:47:33.608Z,17.20
2018-07-26T00:52:31.545Z,17.10
2018-07-26T00:55:00.598Z,17.00
2018-07-26T00:57:29.604Z,17.00
2018-07-26T00:59:58.668Z,17.10
2018-07-26T01:02:29.013Z,17.00
2018-07-26T01:04:57.981Z,17.00
2018-07-26T01:09:55.445Z,17.00
2018-07-26T01:14:53.079Z,16.90
2018-07-26T01:17:22.395Z,16.90
2018-07-26T01:19:51.382Z,16.80
2018-07-26T01:22:21.701Z,16.80
2018-07-26T01:24:50.854Z,16.80
2018-07-26T01:27:19.986Z,16.80
2018-07-26T01:29:49.249Z,16.70
2018-07-26T01:32:18.227Z,16.70
2018-07-26T01:34:47.260Z,16.70
2018-07-26T01:37:16.300Z,16.70
2018-07-26T01:39:45.347Z,16.70
2018-07-26T01:42:14.769Z,16.70
2018-07-26T01:44:43.772Z,16.70
2018-07-26T01:47:13.022Z,16.60
2018-07-26T01:49:42.029Z,16.60
2018-07-26T01:52:11.380Z,16.60
2018-07-26T01:57:09.088Z,16.60
2018-07-26T01:59:38.124Z,16.60
2018-07-26T02:02:07.567Z,16.50
2018-07-26T02:04:36.726Z,16.50
2018-07-26T02:09:34.469Z,16.40
2018-07-26T02:12:03.533Z,16.40
2018-07-26T02:14:35.185Z,16.40
2018-07-26T02:17:04.601Z,16.40
2018-07-26T02:19:33.657Z,16.40
2018-07-26T02:22:02.753Z,16.40
2018-07-26T02:24:31.830Z,16.30
2018-07-26T02:27:00.814Z,16.30
2018-07-26T02:29:29.789Z,16.30
2018-07-26T02:31:59.011Z,16.20
2018-07-26T02:36:56.884Z,16.20
2018-07-26T02:39:26.106Z,16.20
2018-07-26T02:41:55.083Z,16.10
2018-07-26T02:46:53.044Z,16.10
2018-07-26T02:49:22.056Z,16.20
2018-07-26T02:56:48.600Z,16.10
2018-07-26T02:59:17.673Z,16.10
2018-07-26T03:01:46.726Z,16.10
2018-07-26T03:04:15.793Z,16.10
2018-07-26T03:06:44.821Z,16.20
2018-07-26T03:09:13.920Z,16.20
2018-07-26T03:11:42.989Z,16.20
2018-07-26T03:14:12.163Z,16.10
2018-07-26T03:16:41.214Z,16.20
2018-07-26T03:19:10.397Z,16.20
2018-07-26T03:21:39.428Z,16.20
2018-07-26T03:24:08.501Z,16.10
2018-07-26T03:26:37.618Z,16.20
2018-07-26T03:29:07.428Z,16.10
2018-07-26T03:31:38.808Z,16.10
2018-07-26T03:36:36.754Z,16.10
2018-07-26T03:39:08.352Z,16.10
2018-07-26T03:41:37.532Z,16.10
2018-07-26T03:44:06.573Z,16.10
2018-07-26T03:46:35.622Z,16.10
2018-07-26T03:49:04.779Z,16.10
2018-07-26T03:51:33.837Z,16.10
2018-07-26T03:54:02.889Z,16.00
2018-07-26T03:56:32.351Z,16.00
2018-07-26T03:59:01.481Z,16.00
2018-07-26T04:01:30.521Z,16.10
2018-07-26T04:03:59.609Z,16.10
2018-07-26T04:06:28.700Z,16.10
2018-07-26T04:08:57.754Z,16.10
2018-07-26T04:11:27.160Z,16.10
2018-07-26T04:13:56.223Z,16.00
2018-07-26T04:16:25.549Z,16.00
2018-07-26T04:18:54.590Z,16.00
2018-07-26T04:21:23.665Z,15.90
2018-07-26T04:23:52.701Z,15.90
2018-07-26T04:26:21.981Z,16.00
2018-07-26T04:28:51.027Z,16.00
2018-07-26T04:33:48.870Z,16.00
2018-07-26T04:36:19.565Z,16.00
2018-07-26T04:38:48.669Z,16.10
2018-07-26T04:41:17.823Z,16.10
2018-07-26T04:46:16.247Z,16.10
2018-07-26T04:48:45.359Z,16.20
2018-07-26T04:51:14.418Z,16.20
2018-07-26T04:53:43.777Z,16.30
2018-07-26T04:56:13.092Z,16.40
2018-07-26T04:58:42.126Z,16.40
2018-07-26T05:01:11.207Z,16.50
2018-07-26T05:06:08.801Z,16.70
2018-07-26T05:08:37.914Z,16.80
2018-07-26T05:11:07.237Z,16.90
2018-07-26T05:13:36.237Z,17.00
2018-07-26T05:16:05.325Z,17.20
2018-07-26T05:18:34.327Z,17.30
2018-07-26T05:21:03.374Z,17.40
2018-07-26T05:23:32.345Z,17.60
2018-07-26T05:26:01.316Z,17.70
2018-07-26T05:30:58.855Z,18.30
2018-07-26T05:33:27.815Z,18.60
2018-07-26T05:35:57.457Z,19.00
2018-07-26T05:38:27.429Z,19.30
2018-07-26T05:40:56.686Z,19.60
2018-07-26T05:43:25.645Z,20.00
2018-07-26T05:45:54.636Z,20.30
2018-07-26T05:48:23.872Z,20.70
2018-07-26T05:53:21.489Z,21.20
2018-07-26T05:55:50.445Z,21.40
2018-07-26T06:00:49.136Z,21.60
2018-07-26T06:05:50.129Z,22.10
2018-07-26T06:08:19.359Z,22.40
2018-07-26T06:10:48.364Z,22.60
2018-07-26T06:13:18.312Z,22.70
2018-07-26T06:15:47.298Z,22.80
2018-07-26T06:18:16.882Z,22.90
2018-07-26T06:20:45.881Z,23.00
2018-07-26T06:23:14.906Z,23.00
2018-07-26T06:25:47.487Z,23.00
2018-07-26T06:28:17.786Z,23.10
2018-07-26T06:30:46.998Z,23.20
2018-07-26T06:33:16.211Z,23.30
2018-07-26T06:35:45.152Z,23.30
2018-07-26T06:40:42.897Z,23.50
2018-07-26T06:43:13.522Z,23.50
2018-07-26T06:45:58.078Z,23.60
2018-07-26T06:48:40.080Z,23.70
2018-07-26T06:51:09.315Z,23.90
2018-07-26T06:53:38.382Z,24.20
2018-07-26T06:56:14.650Z,24.20
2018-07-26T06:58:46.766Z,24.40
2018-07-26T07:01:16.524Z,24.30
2018-07-26T07:03:47.668Z,24.40
2018-07-26T07:06:18.635Z,24.30
2018-07-26T07:08:48.365Z,24.60
2018-07-26T07:11:18.083Z,24.70
2018-07-26T07:13:47.710Z,24.90
2018-07-26T07:16:18.179Z,25.10
2018-07-26T07:18:47.939Z,25.10
2018-07-26T07:21:18.671Z,25.00
2018-07-26T07:23:48.214Z,25.20
2018-07-26T07:26:17.457Z,25.00
2018-07-26T07:28:46.770Z,25.00
2018-07-26T07:31:17.087Z,25.10
2018-07-26T07:33:46.897Z,25.20
2018-07-26T07:36:17.293Z,25.10
2018-07-26T07:38:46.606Z,25.20
2018-07-26T07:41:16.897Z,25.30
2018-07-26T07:46:15.314Z,25.40
2018-07-26T07:48:44.826Z,25.60
2018-07-26T07:51:14.964Z,25.60
2018-07-26T07:53:44.105Z,25.70
2018-07-26T07:56:13.340Z,25.70
2018-07-26T07:58:42.542Z,25.70
2018-07-26T08:01:11.673Z,25.80
2018-07-26T08:03:40.866Z,26.10
2018-07-26T08:06:09.964Z,26.30
2018-07-26T08:08:39.148Z,26.40
2018-07-26T08:11:08.692Z,26.40
2018-07-26T08:16:06.736Z,26.60
2018-07-26T08:18:35.825Z,26.60
2018-07-26T08:21:09.106Z,26.70
2018-07-26T08:23:38.298Z,26.80
2018-07-26T08:26:07.418Z,26.80
2018-07-26T08:28:36.548Z,26.60
2018-07-26T08:31:05.745Z,26.60
2018-07-26T08:33:35.425Z,26.80
2018-07-26T08:38:33.837Z,27.00
2018-07-26T08:41:04.830Z,26.90
2018-07-26T08:43:34.489Z,27.00
2018-07-26T08:46:03.625Z,27.20
2018-07-26T08:48:32.637Z,27.00
2018-07-26T08:51:01.702Z,27.10
2018-07-26T08:53:30.921Z,27.20
2018-07-26T08:56:00.819Z,27.20
2018-07-26T08:58:30.314Z,27.30
2018-07-26T09:01:00.924Z,27.30
2018-07-26T09:03:30.777Z,27.40
2018-07-26T09:06:01.524Z,27.40
2018-07-26T09:08:31.054Z,27.40
2018-07-26T09:11:01.399Z,27.40
2018-07-26T09:13:30.729Z,27.60
2018-07-26T09:15:59.872Z,27.80
2018-07-26T09:18:29.194Z,27.90
2018-07-26T09:20:58.280Z,28.00
2018-07-26T09:23:27.437Z,28.20
2018-07-26T09:28:25.335Z,28.20
2018-07-26T09:30:54.510Z,28.30
2018-07-26T09:33:23.998Z,28.40
2018-07-26T09:35:53.296Z,28.40
2018-07-26T09:38:22.443Z,28.40
2018-07-26T09:40:51.636Z,28.40
2018-07-26T09:43:21.224Z,28.50
2018-07-26T09:45:50.496Z,28.50
2018-07-26T09:48:19.618Z,28.30
2018-07-26T09:50:48.849Z,28.10
2018-07-26T09:53:18.681Z,28.10
2018-07-26T09:55:49.385Z,27.90
2018-07-26T09:58:18.811Z,27.70
2018-07-26T10:03:21.902Z,27.40
2018-07-26T10:05:51.014Z,27.40
2018-07-26T10:08:22.062Z,27.40
2018-07-26T10:10:51.216Z,27.40
2018-07-26T10:13:20.505Z,27.40
2018-07-26T10:15:49.911Z,27.40
2018-07-26T10:20:47.899Z,27.30
2018-07-26T10:23:17.351Z,27.40
2018-07-26T10:25:47.132Z,27.60
2018-07-26T10:28:16.936Z,27.60
2018-07-26T10:30:46.109Z,27.70
2018-07-26T10:33:15.508Z,27.70
2018-07-26T10:35:44.687Z,27.70
2018-07-26T10:38:13.903Z,27.60
2018-07-26T10:40:43.037Z,27.50
2018-07-26T10:43:13.133Z,27.50
2018-07-26T10:45:42.488Z,27.60
2018-07-26T10:50:40.452Z,27.60
2018-07-26T10:55:38.951Z,27.40
2018-07-26T10:58:08.101Z,27.50
2018-07-26T11:00:37.338Z,27.60
2018-07-26T11:03:07.153Z,27.60
2018-07-26T11:05:36.499Z,27.60
2018-07-26T11:08:05.758Z,27.60
2018-07-26T11:10:34.967Z,27.80
2018-07-26T11:15:35.321Z,27.80
2018-07-26T11:18:05.553Z,27.60
2018-07-26T11:20:35.746Z,27.40
2018-07-26T11:23:06.070Z,27.30
2018-07-26T11:25:35.281Z,27.30
2018-07-26T11:28:04.422Z,27.40
2018-07-26T11:30:33.932Z,27.50
2018-07-26T11:33:03.485Z,27.50
2018-07-26T11:35:32.678Z,27.60
2018-07-26T11:38:01.846Z,27.60
2018-07-26T11:40:31.032Z,27.70
2018-07-26T11:43:00.144Z,27.70
2018-07-26T11:47:58.184Z,27.70
2018-07-26T11:50:27.510Z,27.70
2018-07-26T11:52:56.581Z,27.80
2018-07-26T11:55:25.765Z,27.80
2018-07-26T11:57:55.120Z,27.80
2018-07-26T12:00:24.432Z,27.80
2018-07-26T12:02:53.723Z,27.80
2018-07-26T12:05:22.920Z,27.70
2018-07-26T12:07:52.013Z,27.70
2018-07-26T12:10:21.117Z,27.60
2018-07-26T12:12:50.844Z,27.50
2018-07-26T12:15:20.635Z,27.50
2018-07-26T12:17:49.896Z,27.40
2018-07-26T12:22:49.124Z,27.50
2018-07-26T12:27:47.614Z,27.60
2018-07-26T12:30:16.762Z,27.80
2018-07-26T12:32:45.792Z,27.90
2018-07-26T12:35:14.922Z,27.90
2018-07-26T12:37:44.582Z,27.90
2018-07-26T12:40:14.147Z,27.60
2018-07-26T12:42:43.480Z,27.30
2018-07-26T12:47:41.358Z,26.80
2018-07-26T12:50:10.561Z,26.70
2018-07-26T12:52:39.705Z,26.70
2018-07-26T12:55:09.508Z,26.80
2018-07-26T12:57:39.681Z,26.90
2018-07-26T13:00:08.920Z,27.10
2018-07-26T13:02:38.110Z,27.20
2018-07-26T13:05:08.120Z,27.30
2018-07-26T13:07:37.617Z,27.30
2018-07-26T13:10:07.922Z,27.50
2018-07-26T13:12:37.136Z,27.60
2018-07-26T13:15:07.012Z,27.70
2018-07-26T13:17:36.157Z,27.70
2018-07-26T13:20:06.738Z,27.60
2018-07-26T13:22:36.157Z,27.50
2018-07-26T13:25:05.834Z,27.30
2018-07-26T13:27:34.985Z,27.30
2018-07-26T13:30:04.428Z,27.30
2018-07-26T13:32:33.632Z,27.30
2018-07-26T13:35:02.765Z,27.30
2018-07-26T13:42:30.558Z,27.40
2018-07-26T13:45:00.478Z,27.40
2018-07-26T13:47:29.788Z,27.40
2018-07-26T13:49:59.031Z,27.40
2018-07-26T13:52:28.999Z,27.50
2018-07-26T13:54:58.770Z,27.40
2018-07-26T13:57:28.423Z,27.50
2018-07-26T13:59:57.789Z,27.60
2018-07-26T14:02:27.705Z,27.60
2018-07-26T14:04:57.220Z,27.70
2018-07-26T14:07:26.503Z,27.80
2018-07-26T14:09:56.325Z,27.70
2018-07-26T14:12:25.532Z,27.80
2018-07-26T14:14:54.764Z,27.70
2018-07-26T14:17:34.601Z,27.70
2018-07-26T14:25:01.749Z,27.70
2018-07-26T14:30:00.577Z,27.70
2018-07-26T14:32:30.875Z,27.60
2018-07-26T14:35:00.714Z,27.50
2018-07-26T14:37:30.917Z,27.50
2018-07-26T14:40:00.502Z,27.50
2018-07-26T14:42:30.343Z,27.60
2018-07-26T14:44:59.990Z,27.50
2018-07-26T14:47:29.547Z,27.40
2018-07-26T14:49:59.892Z,27.30
2018-07-26T14:52:29.918Z,27.30
2018-07-26T14:54:59.707Z,27.20
2018-07-26T14:57:31.406Z,27.20
2018-07-26T15:00:01.408Z,27.20
2018-07-26T15:02:41.649Z,27.30
2018-07-26T15:05:36.709Z,27.30
2018-07-26T15:11:33.313Z,27.20
2018-07-26T15:25:00.322Z,27.20
2018-07-26T15:28:35.989Z,27.20
2018-07-26T15:31:16.888Z,27.10
2018-07-26T15:36:28.725Z,27.10
2018-07-26T15:38:58.911Z,27.00
2018-07-26T15:44:09.860Z,27.10
2018-07-26T15:53:23.470Z,27.00
2018-07-26T15:58:30.533Z,27.00
2018-07-26T16:01:00.341Z,27.00
2018-07-26T16:03:29.429Z,26.90
2018-07-26T16:05:58.456Z,26.90
2018-07-26T16:08:31.241Z,27.00
2018-07-26T16:11:02.390Z,26.90
2018-07-26T16:13:33.627Z,26.90
2018-07-26T16:16:04.906Z,26.90
2018-07-26T16:18:36.033Z,26.90
2018-07-26T16:21:08.900Z,26.90
2018-07-26T16:23:39.309Z,26.90
2018-07-26T16:26:09.627Z,27.00
2018-07-26T16:28:40.084Z,27.00
2018-07-26T16:33:40.488Z,27.00
2018-07-26T16:36:14.932Z,26.90
2018-07-26T16:38:45.158Z,26.90
2018-07-26T16:41:15.413Z,26.90
2018-07-26T16:43:45.487Z,26.80
2018-07-26T16:46:20.848Z,26.80
2018-07-26T16:48:50.668Z,26.80
2018-07-26T16:51:20.375Z,26.80
2018-07-26T16:53:49.937Z,26.80
2018-07-26T16:56:19.958Z,26.90
2018-07-26T16:58:50.485Z,26.90
2018-07-26T17:01:20.831Z,26.90
2018-07-26T17:03:51.271Z,26.80
2018-07-26T17:06:22.140Z,26.80
2018-07-26T17:08:51.937Z,26.70
2018-07-26T17:11:21.445Z,26.70
2018-07-26T17:13:50.907Z,26.60
2018-07-26T17:16:20.359Z,26.50
2018-07-26T17:18:49.821Z,26.40
2018-07-26T17:21:21.676Z,26.40
2018-07-26T17:23:51.444Z,26.30
2018-07-26T17:26:23.051Z,26.20
2018-07-26T17:28:53.623Z,26.20
2018-07-26T17:31:23.622Z,26.20
2018-07-26T17:33:54.218Z,26.10
2018-07-26T17:36:28.380Z,26.10
2018-07-26T17:38:58.797Z,26.00
2018-07-26T17:41:28.343Z,25.90
2018-07-26T17:44:00.241Z,25.90
2018-07-26T17:46:30.591Z,25.80
2018-07-26T17:49:00.139Z,25.80
2018-07-26T17:51:31.748Z,25.70
2018-07-26T17:54:01.149Z,25.70
2018-07-26T17:56:30.539Z,25.60
2018-07-26T17:59:00.067Z,25.50
2018-07-26T18:03:59.873Z,25.40
2018-07-26T18:06:30.640Z,25.30
2018-07-26T18:09:00.071Z,25.20
2018-07-26T18:11:29.712Z,25.20
2018-07-26T18:13:59.761Z,25.10
2018-07-26T18:16:29.397Z,25.00
2018-07-26T18:18:59.081Z,24.90
2018-07-26T18:21:28.871Z,24.90
2018-07-26T18:23:59.722Z,25.00
2018-07-26T18:26:29.575Z,25.00
2018-07-26T18:28:59.348Z,25.00
2018-07-26T18:31:30.114Z,24.90
2018-07-26T18:33:59.850Z,24.80
2018-07-26T18:36:30.350Z,24.60
2018-07-26T18:39:00.113Z,24.50
2018-07-26T18:41:29.793Z,24.40
2018-07-26T18:43:59.484Z,24.30
2018-07-26T18:46:29.272Z,24.20
2018-07-26T18:48:58.944Z,24.10
2018-07-26T18:53:57.814Z,23.80
2018-07-26T18:56:27.525Z,23.70
2018-07-26T18:58:57.157Z,23.50
2018-07-26T19:01:34.340Z,23.40
2018-07-26T19:04:04.069Z,23.20
2018-07-26T19:06:33.731Z,23.10
2018-07-26T19:09:04.413Z,23.00
2018-07-26T19:11:34.385Z,22.80
2018-07-26T19:14:05.726Z,22.70
2018-07-26T19:16:35.348Z,22.60
2018-07-26T19:19:05.261Z,22.50
2018-07-26T19:21:35.080Z,22.40
2018-07-26T19:24:06.557Z,22.40
2018-07-26T19:26:36.566Z,22.30
2018-07-26T19:29:06.707Z,22.20
2018-07-26T19:31:36.797Z,22.10
2018-07-26T19:34:06.889Z,22.00
2018-07-26T19:39:09.374Z,21.80
2018-07-26T19:41:43.840Z,21.70
2018-07-26T19:44:13.974Z,21.60
2018-07-26T19:46:46.011Z,21.50
2018-07-26T19:49:15.973Z,21.40
2018-07-26T19:51:51.036Z,21.30
2018-07-26T19:54:20.900Z,21.30
2018-07-26T19:56:50.475Z,21.20
2018-07-26T19:59:20.237Z,21.10
2018-07-26T20:01:50.113Z,21.00
2018-07-26T20:04:19.510Z,21.00
2018-07-26T20:06:48.929Z,20.90
2018-07-26T20:09:18.184Z,20.80
2018-07-26T20:11:48.207Z,20.70
2018-07-26T20:14:17.567Z,20.70
2018-07-26T20:19:16.269Z,20.50
2018-07-26T20:21:45.587Z,20.50
2018-07-26T20:24:15.780Z,20.40
2018-07-26T20:26:47.013Z,20.30
2018-07-26T20:31:49.336Z,20.10
2018-07-26T20:34:19.429Z,20.10
2018-07-26T20:36:49.324Z,20.00
2018-07-26T20:39:19.567Z,20.00
2018-07-26T20:41:50.905Z,20.00
2018-07-26T20:46:50.104Z,19.80
2018-07-26T20:49:21.397Z,19.80
2018-07-26T20:51:51.324Z,19.70
2018-07-26T20:54:22.085Z,19.70
2018-07-26T20:56:52.015Z,19.60
2018-07-26T20:59:22.224Z,19.60
2018-07-26T21:01:52.705Z,19.60
2018-07-26T21:04:22.724Z,19.50
2018-07-26T21:06:52.780Z,19.50
2018-07-26T21:09:22.772Z,19.40
2018-07-26T21:14:22.741Z,19.30
2018-07-26T21:16:52.609Z,19.20
2018-07-26T21:19:22.262Z,19.20
2018-07-26T21:21:51.982Z,19.10
2018-07-26T21:26:50.994Z,19.00
2018-07-26T21:29:21.706Z,19.10
2018-07-26T21:31:51.660Z,19.10
2018-07-26T21:34:22.393Z,19.10
2018-07-26T21:36:53.658Z,19.10
2018-07-26T21:39:23.624Z,19.00
2018-07-26T21:41:55.143Z,19.00
2018-07-26T21:44:25.022Z,19.00
2018-07-26T21:46:55.039Z,19.00
2018-07-26T21:49:25.987Z,19.00
2018-07-26T21:51:55.951Z,19.00
2018-07-26T21:54:25.371Z,19.00
2018-07-26T21:56:54.702Z,19.00
2018-07-26T21:59:24.116Z,18.90
2018-07-26T22:01:53.480Z,19.00
2018-07-26T22:04:23.118Z,19.00
2018-07-26T22:06:52.535Z,19.00
2018-07-26T22:09:22.055Z,19.00
2018-07-26T22:11:51.360Z,19.00
2018-07-26T22:16:50.435Z,19.20
2018-07-26T22:19:19.824Z,19.30
2018-07-26T22:21:49.165Z,19.30
2018-07-26T22:26:48.184Z,19.30
2018-07-26T22:29:18.249Z,19.30
2018-07-26T22:31:47.600Z,19.40
2018-07-26T22:34:16.903Z,19.50
2018-07-26T22:36:46.273Z,19.50
2018-07-26T22:39:15.641Z,19.60
2018-07-26T22:41:45.063Z,19.60
2018-07-26T22:44:14.424Z,19.70
2018-07-26T22:46:43.917Z,19.80
2018-07-26T22:49:13.378Z,19.90
2018-07-26T22:51:42.731Z,19.90
2018-07-26T22:54:12.176Z,20.00
2018-07-26T22:56:41.621Z,19.90
2018-07-26T22:59:11.015Z,19.90
2018-07-26T23:01:40.340Z,19.80
2018-07-26T23:04:09.699Z,19.70
2018-07-26T23:06:39.079Z,19.60
2018-07-26T23:09:10.510Z,19.50
2018-07-26T23:11:40.348Z,19.40
2018-07-26T23:16:39.945Z,19.20
2018-07-26T23:19:09.284Z,19.20
2018-07-26T23:21:38.648Z,19.10
2018-07-26T23:24:09.015Z,19.00
2018-07-26T23:26:38.460Z,19.00
2018-07-26T23:29:08.515Z,18.90
2018-07-26T23:31:37.994Z,18.80
2018-07-26T23:34:07.370Z,18.80
2018-07-26T23:36:37.122Z,18.70
2018-07-26T23:39:09.202Z,18.70
2018-07-26T23:44:07.337Z,18.60
2018-07-26T23:46:37.048Z,18.70
2018-07-26T23:49:06.396Z,18.60
2018-07-26T23:51:35.705Z,18.50
2018-07-26T23:54:05.123Z,18.50
2018-07-26T23:56:34.501Z,18.50
2018-07-26T23:59:03.902Z,18.40
